This is the latest recevied weather packets stored in our database for station/object SQ5JP-4. If no packets are shown the sender has not sent any weather packets the latest 10 day(s).
| Time | Temp. | Humidity | Pressure | Rain* | Wind** | Luminosity | Snow |
|---|---|---|---|---|---|---|---|
| 1776962677 | 12.78° C | 39% | 993.7 hPa | - | - | - | - |
| 1776961777 | 13.33° C | 39% | 993.8 hPa | - | - | - | - |
| 1776960877 | 13.89° C | 39% | 993.8 hPa | - | - | - | - |
| 1776959977 | 14.44° C | 39% | 993.7 hPa | - | - | - | - |
| 1776937468 | 14.44° C | 51% | 994.6 hPa | - | - | - | - |
| 1776936568 | 14.44° C | 52% | 994.6 hPa | - | - | - | - |
| 1776935668 | 15° C | 54% | 994.6 hPa | - | - | - | - |
| 1776934768 | 13.89° C | 57% | 994.6 hPa | - | - | - | - |
| 1776933867 | 13.89° C | 56% | 994.7 hPa | - | - | - | - |
| 1776932966 | 13.33° C | 58% | 994.7 hPa | - | - | - | - |
| 1776931169 | 12.22° C | 64% | 994.9 hPa | - | - | - | - |
| 1776930269 | 12.22° C | 68% | 994.8 hPa | - | - | - | - |
| 1776929369 | 11.67° C | 69% | 995 hPa | - | - | - | - |
| 1776928469 | 11.11° C | 74% | 994.9 hPa | - | - | - | - |
| 1776927568 | 10.56° C | 77% | 995 hPa | - | - | - | - |
| 1776926668 | 10° C | 81% | 995 hPa | - | - | - | - |
| 1776925768 | 9.44° C | 86% | 995.1 hPa | - | - | - | - |
| 1776924868 | 9.44° C | 91% | 995.1 hPa | - | - | - | - |
| 1776923968 | 9.44° C | 92% | 994.9 hPa | - | - | - | - |
| 1776923068 | 8.33° C | 98% | 995 hPa | - | - | - | - |
| 1776922168 | 7.78° C | 100% | 995 hPa | - | - | - | - |
| 1776921268 | 7.78° C | 100% | 995.2 hPa | - | - | - | - |
| 1776920367 | 7.22° C | 100% | 995.1 hPa | - | - | - | - |
| 1776919468 | 6.67° C | 100% | 995 hPa | - | - | - | - |
| 1776918567 | 6.11° C | 100% | 995 hPa | - | - | - | - |
* Rain since midnight (hover to see other rain measurements)
** Current wind speed in m/s (hover to see current wind gust speed)